Time;durP1;ratioP1;P1;durP2;ratioP2;P2;SDS_P1;SDS_P2;PMS_P1;PMS_P2;Temp;Humidity;BMP_temperature;BMP_pressure;BME280_temperature;BME280_humidity;BME280_pressure;Samples;Min_cycle;Max_cycle;Signal;HPM_P1;HPM_P2
2022/01/12 00:01:11;;;;;;;6.05;4.95;;;2.10;99.90;;;;;;503054;236;27518;-68
2022/01/12 00:03:10;;;;;;;5.82;4.60;;;2.10;99.90;;;;;;502879;236;28030;-68
2022/01/12 00:05:11;;;;;;;5.70;5.10;;;2.10;99.90;;;;;;503115;236;28058;-68
2022/01/12 00:07:12;;;;;;;6.60;5.30;;;2.10;99.90;;;;;;503075;236;27886;-68
2022/01/12 00:09:14;;;;;;;8.43;5.95;;;2.10;99.90;;;;;;503099;236;28243;-69
2022/01/12 00:11:15;;;;;;;7.00;5.70;;;2.00;99.90;;;;;;503045;236;27541;-68
2022/01/12 00:13:16;;;;;;;6.80;5.15;;;2.00;99.90;;;;;;503029;236;27495;-68
2022/01/12 00:15:17;;;;;;;6.03;5.40;;;2.00;99.90;;;;;;503062;236;27576;-68
2022/01/12 00:17:19;;;;;;;6.18;4.87;;;2.00;99.90;;;;;;502889;236;27553;-69
2022/01/12 00:19:22;;;;;;;6.28;5.32;;;2.00;99.90;;;;;;503064;236;27465;-68
2022/01/12 00:21:21;;;;;;;8.52;5.45;;;2.00;99.90;;;;;;502881;236;27501;-68
2022/01/12 00:23:22;;;;;;;6.18;5.57;;;1.90;99.90;;;;;;503082;236;27478;-68
2022/01/12 00:25:28;;;;;;;7.87;5.50;;;1.90;99.90;;;;;;503061;236;27485;-68
2022/01/12 00:34:24;;;;;;;7.43;6.32;;;1.70;99.90;;;;;;503055;236;27513;-68
2022/01/12 00:36:25;;;;;;;6.07;5.47;;;1.70;99.90;;;;;;503034;236;27461;-68
2022/01/12 00:38:29;;;;;;;6.45;5.45;;;1.70;99.90;;;;;;502982;236;27521;-69
2022/01/12 00:40:27;;;;;;;7.15;6.45;;;1.60;99.90;;;;;;502677;236;27512;-68
2022/01/12 00:42:29;;;;;;;8.27;6.45;;;1.60;99.90;;;;;;502877;236;27541;-69
2022/01/12 00:44:34;;;;;;;11.85;7.05;;;1.60;99.90;;;;;;502841;236;27485;-69
2022/01/12 00:46:31;;;;;;;7.10;6.40;;;1.60;99.90;;;;;;502414;236;27528;-69
2022/01/12 00:48:36;;;;;;;11.15;7.03;;;1.50;99.90;;;;;;502991;236;27525;-68
2022/01/12 00:50:34;;;;;;;8.00;6.78;;;1.50;99.90;;;;;;502809;236;27477;-68
2022/01/12 00:52:35;;;;;;;9.93;7.60;;;1.50;99.90;;;;;;503054;236;27895;-68
2022/01/12 00:54:36;;;;;;;8.45;6.90;;;1.60;99.90;;;;;;503029;236;28088;-68
2022/01/12 00:56:37;;;;;;;8.93;7.03;;;1.60;99.90;;;;;;503040;236;27922;-69
2022/01/12 00:58:39;;;;;;;8.57;7.15;;;1.60;99.90;;;;;;503056;236;27895;-68
2022/01/12 01:00:40;;;;;;;11.70;7.75;;;1.60;99.90;;;;;;503061;236;27478;-68
2022/01/12 01:02:41;;;;;;;7.25;6.43;;;1.60;99.90;;;;;;503064;236;27568;-69
2022/01/12 01:04:42;;;;;;;9.95;7.55;;;1.60;99.90;;;;;;503053;236;27573;-68
2022/01/12 01:06:44;;;;;;;12.82;7.05;;;1.60;99.90;;;;;;503038;236;27446;-68
2022/01/12 01:08:48;;;;;;;8.10;6.43;;;1.60;99.90;;;;;;503054;236;27450;-68
2022/01/12 01:10:47;;;;;;;9.05;7.18;;;1.60;99.90;;;;;;502842;236;27489;-68
2022/01/12 01:12:48;;;;;;;8.75;6.55;;;1.60;99.90;;;;;;502984;236;27524;-68
2022/01/12 01:15:02;;;;;;;9.23;7.15;;;1.50;99.90;;;;;;503054;236;27478;-68
2022/01/12 01:26:09;;;;;;;8.25;7.07;;;1.40;99.90;;;;;;503059;236;27480;-69
2022/01/12 01:28:10;;;;;;;7.70;6.12;;;1.30;99.90;;;;;;503064;236;27447;-69
2022/01/12 01:30:11;;;;;;;9.00;6.82;;;1.30;99.90;;;;;;503038;236;27557;-68
2022/01/12 01:32:12;;;;;;;7.55;6.37;;;1.20;99.90;;;;;;503063;236;28430;-68
2022/01/12 01:34:15;;;;;;;8.25;6.65;;;1.10;99.90;;;;;;503048;236;28034;-68
2022/01/12 01:36:16;;;;;;;9.20;6.82;;;1.10;99.90;;;;;;502971;236;27945;-68
2022/01/12 01:38:16;;;;;;;8.07;6.45;;;1.00;99.90;;;;;;502982;236;27466;-68
2022/01/12 01:40:17;;;;;;;9.32;6.87;;;1.00;99.90;;;;;;503032;236;27467;-68
2022/01/12 01:42:25;;;;;;;9.35;6.80;;;0.90;99.90;;;;;;503062;236;27493;-69
2022/01/12 01:53:16;;;;;;;10.30;6.28;;;0.90;99.90;;;;;;502515;236;27452;-68
2022/01/12 01:53:22;;;;;;;5.85;5.28;;;0.70;99.90;;;;;;503001;236;27501;-68
2022/01/12 01:55:22;;;;;;;5.93;5.15;;;0.60;99.90;;;;;;502919;236;27611;-68
2022/01/12 01:57:24;;;;;;;5.75;5.15;;;0.60;99.90;;;;;;503062;236;27494;-68
2022/01/12 01:59:24;;;;;;;7.45;5.07;;;0.50;99.90;;;;;;503053;236;27446;-68
2022/01/12 02:01:26;;;;;;;6.57;5.68;;;0.40;99.90;;;;;;503087;236;27484;-68
2022/01/12 02:03:29;;;;;;;6.80;5.43;;;0.40;99.90;;;;;;503053;236;28418;-68
2022/01/12 02:05:28;;;;;;;6.12;5.25;;;0.40;99.90;;;;;;502954;236;27892;-68
2022/01/12 02:07:29;;;;;;;5.65;4.75;;;0.40;99.90;;;;;;503083;236;29024;-68
2022/01/12 02:09:31;;;;;;;6.07;4.90;;;0.30;99.90;;;;;;503091;236;27986;-68
2022/01/12 02:11:32;;;;;;;6.05;4.93;;;0.30;99.90;;;;;;503052;236;27482;-68
2022/01/12 02:13:33;;;;;;;6.90;5.50;;;0.20;99.90;;;;;;503062;236;27496;-68
2022/01/12 02:15:34;;;;;;;7.45;5.12;;;0.20;99.90;;;;;;503092;236;27443;-68
2022/01/12 02:17:41;;;;;;;6.57;5.05;;;0.20;99.90;;;;;;503106;236;27468;-68
2022/01/12 02:19:49;;;;;;;5.68;4.50;;;0.20;99.90;;;;;;502649;236;27457;-69
2022/01/12 02:35:56;;;;;;;4.20;3.62;;;-0.10;99.90;;;;;;503076;236;27450;-68
2022/01/12 02:40:03;;;;;;;4.70;4.30;;;-0.20;99.90;;;;;;503073;236;28009;-68
2022/01/12 02:42:04;;;;;;;5.37;4.60;;;-0.20;99.90;;;;;;503079;236;27631;-68
2022/01/12 02:51:12;;;;;;;5.12;4.55;;;-0.30;99.90;;;;;;503076;236;27979;-68
2022/01/12 02:55:19;;;;;;;3.92;3.37;;;-0.40;99.90;;;;;;502932;236;27489;-68
2022/01/12 02:57:20;;;;;;;4.28;3.87;;;-0.40;99.90;;;;;;503055;236;27443;-68
2022/01/12 02:59:21;;;;;;;4.78;4.30;;;-0.40;99.90;;;;;;503087;236;27501;-68
2022/01/12 03:01:48;;;;;;;4.45;3.90;;;-0.50;99.90;;;;;;503063;236;27574;-68
2022/01/12 03:03:30;;;;;;;5.87;5.00;;;-0.50;99.90;;;;;;501240;236;27557;-68
2022/01/12 03:05:45;;;;;;;7.15;4.85;;;-0.50;99.90;;;;;;502810;236;27443;-68
2022/01/12 03:07:36;;;;;;;5.20;4.40;;;-0.60;99.90;;;;;;501876;236;29043;-68
2022/01/12 03:09:33;;;;;;;5.53;4.47;;;-0.60;99.90;;;;;;502705;236;27447;-68
2022/01/12 03:11:35;;;;;;;6.05;5.03;;;-0.60;99.90;;;;;;503080;236;27476;-68
2022/01/12 03:13:36;;;;;;;8.57;5.20;;;-0.60;99.90;;;;;;503059;236;27431;-68
2022/01/12 03:15:40;;;;;;;5.15;4.50;;;-0.70;99.90;;;;;;503034;236;27484;-68
2022/01/12 03:17:38;;;;;;;6.25;5.20;;;-0.70;99.90;;;;;;502822;236;27538;-68
2022/01/12 03:19:40;;;;;;;6.30;4.47;;;-0.70;99.90;;;;;;503093;236;27548;-68
2022/01/12 03:21:41;;;;;;;5.93;4.82;;;-0.70;99.90;;;;;;503080;236;27483;-68
2022/01/12 03:23:42;;;;;;;5.37;4.87;;;-0.70;99.90;;;;;;503087;236;27480;-68
2022/01/12 03:25:43;;;;;;;5.82;4.62;;;-0.70;99.90;;;;;;503053;236;27973;-68
2022/01/12 03:27:45;;;;;;;4.93;4.37;;;-0.70;99.90;;;;;;503047;236;28672;-68
2022/01/12 03:29:50;;;;;;;5.10;4.47;;;-0.70;99.90;;;;;;503078;236;27454;-68
2022/01/12 03:31:47;;;;;;;6.68;4.80;;;-0.80;99.90;;;;;;502740;236;27470;-68
2022/01/12 03:36:11;;;;;;;5.50;4.65;;;-0.80;99.90;;;;;;503052;236;27497;-68
2022/01/12 03:38:19;;;;;;;9.25;5.87;;;-0.80;99.90;;;;;;501237;236;27567;-68
2022/01/12 03:39:55;;;;;;;7.72;5.40;;;-0.70;99.90;;;;;;501278;236;28056;-68
2022/01/12 03:41:56;;;;;;;5.50;4.75;;;-0.70;99.90;;;;;;503082;236;27897;-68
2022/01/12 03:43:58;;;;;;;6.28;4.50;;;-0.60;99.90;;;;;;503065;236;27601;-68
2022/01/12 03:45:59;;;;;;;5.78;4.95;;;-0.60;99.90;;;;;;503045;236;27514;-68
2022/01/12 03:48:00;;;;;;;5.35;4.60;;;-0.60;99.90;;;;;;503083;236;27450;-68
2022/01/12 03:50:01;;;;;;;4.78;4.00;;;-0.60;99.90;;;;;;503035;236;27461;-68
2022/01/12 03:52:02;;;;;;;5.20;4.72;;;-0.60;99.90;;;;;;503060;236;27491;-68
2022/01/12 03:54:04;;;;;;;5.87;4.65;;;-0.60;99.90;;;;;;503025;236;27473;-68
2022/01/12 03:56:05;;;;;;;5.00;4.05;;;-0.70;99.90;;;;;;503014;236;27423;-68
2022/01/12 03:58:06;;;;;;;4.60;4.10;;;-0.70;99.90;;;;;;503069;236;27986;-68
2022/01/12 04:00:07;;;;;;;5.90;4.53;;;-0.70;99.90;;;;;;503065;236;27955;-68
2022/01/12 04:02:09;;;;;;;4.50;4.10;;;-0.80;99.90;;;;;;503056;236;28995;-68
2022/01/12 04:04:17;;;;;;;6.82;4.97;;;-0.80;99.90;;;;;;503062;236;27495;-68
2022/01/12 04:08:31;;;;;;;8.27;5.80;;;-0.80;99.90;;;;;;503069;236;27442;-68
2022/01/12 04:10:32;;;;;;;6.03;5.25;;;-0.80;99.90;;;;;;503045;236;27475;-68
2022/01/12 04:12:33;;;;;;;8.57;5.93;;;-0.80;99.90;;;;;;503064;236;28059;-68
2022/01/12 04:14:35;;;;;;;6.35;5.22;;;-0.80;99.90;;;;;;503062;236;28001;-68
2022/01/12 04:16:36;;;;;;;6.70;5.53;;;-0.80;99.90;;;;;;503075;236;27532;-68
2022/01/12 04:18:37;;;;;;;6.40;5.03;;;-0.80;99.90;;;;;;503051;236;27533;-68
2022/01/12 04:20:45;;;;;;;6.55;5.50;;;-0.80;99.90;;;;;;503030;236;27469;-68
2022/01/12 04:24:59;;;;;;;6.78;6.05;;;-0.70;99.90;;;;;;503068;236;27389;-68
2022/01/12 04:27:00;;;;;;;9.27;5.00;;;-0.70;99.90;;;;;;503062;236;27963;-68
2022/01/12 04:29:02;;;;;;;7.43;6.05;;;-0.70;99.90;;;;;;503043;236;28989;-68
2022/01/12 04:31:03;;;;;;;7.15;5.60;;;-0.70;99.90;;;;;;503081;236;27561;-68
2022/01/12 04:33:04;;;;;;;6.97;5.55;;;-0.70;99.90;;;;;;503068;236;27583;-68
2022/01/12 04:35:05;;;;;;;8.25;6.00;;;-0.70;99.90;;;;;;503023;236;27451;-68
2022/01/12 04:37:07;;;;;;;9.70;6.97;;;-0.70;99.90;;;;;;503039;236;27497;-68
2022/01/12 04:39:08;;;;;;;12.23;7.32;;;-0.70;99.90;;;;;;503049;236;27500;-68
2022/01/12 04:41:09;;;;;;;10.77;7.35;;;-0.70;99.90;;;;;;503030;236;27464;-68
2022/01/12 04:43:10;;;;;;;9.77;6.05;;;-0.70;99.90;;;;;;503035;236;27573;-68
2022/01/12 04:47:45;;;;;;;7.87;6.93;;;-0.90;99.90;;;;;;503055;236;28007;-68
2022/01/12 04:49:47;;;;;;;6.78;5.55;;;-0.80;99.90;;;;;;501475;236;27914;-67
2022/01/12 04:51:49;;;;;;;6.93;6.20;;;-0.80;99.90;;;;;;502914;236;27469;-68
2022/01/12 04:53:50;;;;;;;10.10;7.12;;;-0.80;99.90;;;;;;503044;236;27514;-68
2022/01/12 04:55:51;;;;;;;9.02;7.10;;;-0.70;99.90;;;;;;503043;236;27481;-68
2022/01/12 04:57:52;;;;;;;8.60;6.60;;;-0.70;99.90;;;;;;503042;236;28666;-69
2022/01/12 05:06:24;;;;;;;13.77;8.45;;;-0.70;99.90;;;;;;493369;240;27553;-68
2022/01/12 05:13:01;;;;;;;8.27;6.78;;;-0.80;99.90;;;;;;493378;240;27960;-71
2022/01/12 05:15:08;;;;;;;9.95;6.50;;;-0.80;99.90;;;;;;493369;241;27956;-68
2022/01/12 05:17:03;;;;;;;8.32;6.50;;;-0.90;99.90;;;;;;493338;241;28957;-68
2022/01/12 05:19:05;;;;;;;6.90;5.97;;;-0.90;99.90;;;;;;493365;241;28895;-68
2022/01/12 05:21:06;;;;;;;6.50;5.20;;;-0.90;99.90;;;;;;493395;241;27545;-69
2022/01/12 05:23:07;;;;;;;6.65;5.40;;;-0.90;99.90;;;;;;493403;241;27635;-68
2022/01/12 05:25:08;;;;;;;7.45;5.80;;;-1.00;99.90;;;;;;493415;241;27548;-68
2022/01/12 05:27:10;;;;;;;5.28;4.65;;;-1.10;99.90;;;;;;493395;241;27360;-68
2022/01/12 05:29:11;;;;;;;6.37;5.35;;;-1.10;99.90;;;;;;493433;241;27568;-68
2022/01/12 05:31:13;;;;;;;6.43;5.30;;;-1.20;99.90;;;;;;493378;241;27488;-68
2022/01/12 05:33:14;;;;;;;5.15;4.62;;;-1.20;99.90;;;;;;493375;241;27968;-68
2022/01/12 05:35:17;;;;;;;6.12;5.30;;;-1.20;99.90;;;;;;493366;241;28027;-68
2022/01/12 05:37:16;;;;;;;5.93;4.78;;;-1.20;99.90;;;;;;498355;236;29006;-68
2022/01/12 05:39:17;;;;;;;6.93;5.15;;;-1.20;99.90;;;;;;503066;236;27553;-68
2022/01/12 05:41:18;;;;;;;5.07;4.55;;;-1.20;99.90;;;;;;503068;236;27439;-68
2022/01/12 05:43:28;;;;;;;5.50;4.90;;;-1.20;99.90;;;;;;503058;236;27568;-68
2022/01/12 05:45:27;;;;;;;4.65;4.15;;;-1.20;99.90;;;;;;502820;236;27910;-68
2022/01/12 05:49:33;;;;;;;5.45;4.95;;;-1.30;99.90;;;;;;503026;236;28047;-68
2022/01/12 05:49:41;;;;;;;5.80;5.10;;;-1.30;99.90;;;;;;501202;236;28013;-68
2022/01/12 05:51:39;;;;;;;5.50;4.40;;;-1.30;99.90;;;;;;502809;236;27969;-68
2022/01/12 05:53:40;;;;;;;5.75;4.72;;;-1.40;99.90;;;;;;503047;236;27437;-68
2022/01/12 05:55:42;;;;;;;5.82;5.22;;;-1.40;99.90;;;;;;503057;236;27475;-68
2022/01/12 05:57:43;;;;;;;5.70;4.87;;;-1.40;99.90;;;;;;503036;236;27481;-68
2022/01/12 05:59:44;;;;;;;5.82;5.22;;;-1.40;99.90;;;;;;503030;236;27605;-68
2022/01/12 06:01:45;;;;;;;5.30;4.80;;;-1.40;99.90;;;;;;502998;236;27170;-69
2022/01/12 06:03:47;;;;;;;5.60;5.05;;;-1.40;99.90;;;;;;503077;236;27459;-68
2022/01/12 06:05:48;;;;;;;5.85;5.15;;;-1.40;99.90;;;;;;503070;236;27480;-68
2022/01/12 06:07:49;;;;;;;6.45;5.85;;;-1.40;99.90;;;;;;503050;236;27439;-68
2022/01/12 06:09:50;;;;;;;5.50;5.00;;;-1.40;99.90;;;;;;503039;236;27965;-68
2022/01/12 06:11:52;;;;;;;6.12;5.53;;;-1.40;99.90;;;;;;503065;236;29037;-68
2022/01/12 06:13:55;;;;;;;5.82;5.28;;;-1.50;99.90;;;;;;503040;236;27497;-68
2022/01/12 06:15:54;;;;;;;5.50;5.00;;;-1.50;99.90;;;;;;502897;236;27381;-68
2022/01/12 06:17:56;;;;;;;5.78;5.12;;;-1.50;99.90;;;;;;502986;236;27101;-68
2022/01/12 06:19:57;;;;;;;5.93;5.37;;;-1.50;99.90;;;;;;503025;236;27358;-68
2022/01/12 06:21:58;;;;;;;5.28;4.78;;;-1.50;99.90;;;;;;503065;236;27069;-68
2022/01/12 06:23:59;;;;;;;7.03;5.60;;;-1.60;99.90;;;;;;503028;236;27472;-68
2022/01/12 06:26:01;;;;;;;6.70;5.75;;;-1.60;99.90;;;;;;503033;236;27489;-68
2022/01/12 06:28:24;;;;;;;6.82;5.45;;;-1.60;99.90;;;;;;503029;236;27351;-68
2022/01/12 06:32:29;;;;;;;5.28;4.78;;;-1.60;99.90;;;;;;502979;236;27525;-68
2022/01/12 06:34:30;;;;;;;5.50;4.70;;;-1.60;99.90;;;;;;503046;236;27888;-68
2022/01/12 06:36:31;;;;;;;6.50;5.05;;;-1.70;99.90;;;;;;503015;236;27941;-68
2022/01/12 06:38:33;;;;;;;4.57;4.18;;;-1.60;99.90;;;;;;503030;236;29051;-68
2022/01/12 06:40:34;;;;;;;6.55;5.72;;;-1.60;99.90;;;;;;503050;236;27489;-68
2022/01/12 06:42:35;;;;;;;5.80;4.72;;;-1.60;99.90;;;;;;503050;236;27463;-68
2022/01/12 06:44:36;;;;;;;5.70;5.00;;;-1.70;99.90;;;;;;503032;236;27246;-68
2022/01/12 06:46:38;;;;;;;5.97;5.12;;;-1.60;99.90;;;;;;503058;236;27471;-68
2022/01/12 06:48:39;;;;;;;6.75;5.15;;;-1.70;99.90;;;;;;503070;236;27477;-68
2022/01/12 06:50:40;;;;;;;6.95;5.47;;;-1.70;99.90;;;;;;503065;236;27307;-68
2022/01/12 06:52:41;;;;;;;7.22;5.30;;;-1.80;99.90;;;;;;503056;236;27442;-68
2022/01/12 06:54:43;;;;;;;6.18;5.57;;;-1.80;99.90;;;;;;503094;236;28056;-68
2022/01/12 06:56:44;;;;;;;5.30;4.50;;;-1.80;99.90;;;;;;503067;236;27858;-68
2022/01/12 06:58:45;;;;;;;5.12;4.50;;;-1.80;99.90;;;;;;503052;236;27948;-68
2022/01/12 07:00:47;;;;;;;6.60;5.35;;;-1.80;99.90;;;;;;503022;236;27347;-68
2022/01/12 07:02:48;;;;;;;4.65;4.00;;;-1.70;99.90;;;;;;503062;236;27441;-68
2022/01/12 07:04:49;;;;;;;5.60;4.47;;;-1.70;99.90;;;;;;503065;236;27471;-68
2022/01/12 07:06:50;;;;;;;4.90;4.45;;;-1.70;99.90;;;;;;503055;236;27466;-68
2022/01/12 07:08:51;;;;;;;5.15;4.37;;;-1.70;99.90;;;;;;503046;236;27153;-68
2022/01/12 07:10:53;;;;;;;5.32;4.45;;;-1.70;99.90;;;;;;503061;236;27708;-68
2022/01/12 07:12:54;;;;;;;4.65;4.18;;;-1.80;99.90;;;;;;503056;236;27601;-68
2022/01/12 07:14:55;;;;;;;4.87;4.37;;;-1.80;99.90;;;;;;503031;236;27948;-68
2022/01/12 07:16:57;;;;;;;5.35;4.37;;;-1.80;99.90;;;;;;503059;236;27990;-68
2022/01/12 07:18:59;;;;;;;6.28;4.53;;;-1.80;99.90;;;;;;503051;236;27962;-68
2022/01/12 07:20:59;;;;;;;5.22;4.43;;;-1.80;99.90;;;;;;503019;236;27412;-68
2022/01/12 07:23:00;;;;;;;5.18;4.20;;;-1.80;99.90;;;;;;503111;236;27446;-68
2022/01/12 07:25:02;;;;;;;5.75;5.07;;;-1.80;99.90;;;;;;503056;236;27586;-68
2022/01/12 07:27:03;;;;;;;5.80;4.82;;;-1.80;99.90;;;;;;503075;236;27219;-68
2022/01/12 07:29:04;;;;;;;5.60;5.10;;;-1.80;99.90;;;;;;503032;236;27452;-68
2022/01/12 07:31:05;;;;;;;6.00;4.95;;;-1.80;99.90;;;;;;503085;236;27597;-68
2022/01/12 07:33:06;;;;;;;6.62;5.90;;;-1.80;99.90;;;;;;503069;236;27519;-68
2022/01/12 07:35:08;;;;;;;6.53;5.82;;;-1.90;99.90;;;;;;503076;236;27882;-68
2022/01/12 07:37:10;;;;;;;6.45;5.25;;;-2.00;99.90;;;;;;503070;236;27918;-68
2022/01/12 07:39:10;;;;;;;6.97;5.57;;;-1.90;99.90;;;;;;503091;236;27803;-68
2022/01/12 07:41:11;;;;;;;6.53;5.68;;;-1.90;99.90;;;;;;503114;236;27180;-68
2022/01/12 07:43:13;;;;;;;5.93;5.30;;;-1.90;99.90;;;;;;503103;236;27442;-68
2022/01/12 07:45:14;;;;;;;6.80;5.55;;;-1.90;99.90;;;;;;503061;236;27243;-68
2022/01/12 07:47:15;;;;;;;7.32;5.37;;;-2.00;99.90;;;;;;503059;236;27228;-68
2022/01/12 07:49:16;;;;;;;6.15;5.18;;;-2.00;99.90;;;;;;503110;236;27459;-68
2022/01/12 07:51:18;;;;;;;5.82;4.97;;;-1.90;99.90;;;;;;503089;236;27392;-68
2022/01/12 07:53:19;;;;;;;6.57;5.40;;;-1.90;99.90;;;;;;503086;236;27328;-68
2022/01/12 07:55:20;;;;;;;4.80;4.30;;;-1.90;99.90;;;;;;503084;236;27584;-67
2022/01/12 07:57:22;;;;;;;5.43;4.93;;;-1.90;99.90;;;;;;503069;236;27480;-68
2022/01/12 07:59:23;;;;;;;6.60;4.78;;;-1.80;99.90;;;;;;503079;236;27449;-68
2022/01/12 08:01:24;;;;;;;5.45;4.95;;;-1.80;99.90;;;;;;503064;236;27315;-68
2022/01/12 08:03:25;;;;;;;6.68;5.60;;;-1.80;99.90;;;;;;503071;236;27226;-68
2022/01/12 08:05:27;;;;;;;6.00;5.40;;;-1.90;99.90;;;;;;503057;236;27463;-68
2022/01/12 08:07:28;;;;;;;6.82;5.15;;;-1.90;99.90;;;;;;503087;236;27954;-68
2022/01/12 08:09:29;;;;;;;5.70;5.10;;;-1.80;99.90;;;;;;503080;236;27447;-68
2022/01/12 08:11:32;;;;;;;5.45;4.95;;;-1.80;99.90;;;;;;503062;236;27545;-68
2022/01/12 08:13:32;;;;;;;5.32;4.80;;;-1.80;99.90;;;;;;502976;236;27459;-67
2022/01/12 08:15:33;;;;;;;6.30;5.10;;;-1.80;99.90;;;;;;503021;236;27468;-67
2022/01/12 08:17:34;;;;;;;4.93;4.40;;;-1.80;99.90;;;;;;503062;236;27065;-68
2022/01/12 08:19:37;;;;;;;7.15;4.90;;;-1.80;99.90;;;;;;503026;236;27474;-68
2022/01/12 08:21:37;;;;;;;6.93;5.80;;;-1.70;99.90;;;;;;502940;236;28045;-68
2022/01/12 08:23:38;;;;;;;5.37;4.87;;;-1.70;99.90;;;;;;503028;236;27897;-68
2022/01/12 08:25:40;;;;;;;5.40;4.78;;;-1.70;99.90;;;;;;503054;236;28977;-68
2022/01/12 08:27:40;;;;;;;5.00;4.50;;;-1.70;99.90;;;;;;503076;236;27473;-68
2022/01/12 08:29:42;;;;;;;5.95;5.00;;;-1.70;99.90;;;;;;503030;236;27450;-68
2022/01/12 08:31:43;;;;;;;8.10;6.03;;;-1.60;99.90;;;;;;503034;236;27512;-68
2022/01/12 08:33:44;;;;;;;6.80;5.87;;;-1.60;99.90;;;;;;503023;236;27526;-68
2022/01/12 08:35:45;;;;;;;5.93;4.82;;;-1.60;99.90;;;;;;503065;236;27446;-69
2022/01/12 08:37:47;;;;;;;6.20;5.20;;;-1.60;99.90;;;;;;503021;236;27493;-68
2022/01/12 08:39:48;;;;;;;7.50;5.85;;;-1.60;99.90;;;;;;503065;236;27443;-69
2022/01/12 08:41:49;;;;;;;6.15;4.80;;;-1.50;99.90;;;;;;503050;236;27925;-69
2022/01/12 08:43:50;;;;;;;7.03;5.70;;;-1.50;99.90;;;;;;503059;236;28045;-69
2022/01/12 08:45:53;;;;;;;5.82;4.80;;;-1.40;99.90;;;;;;503087;236;27967;-69
2022/01/12 08:47:53;;;;;;;5.65;4.90;;;-1.40;99.90;;;;;;502951;236;27487;-70
2022/01/12 08:49:54;;;;;;;7.62;5.80;;;-1.30;99.90;;;;;;503057;236;27547;-69
2022/01/12 08:51:55;;;;;;;7.03;5.62;;;-1.30;99.90;;;;;;503037;236;27482;-69
2022/01/12 08:53:57;;;;;;;6.10;5.15;;;-1.30;99.90;;;;;;503075;236;27495;-69
2022/01/12 08:55:58;;;;;;;7.60;5.28;;;-1.30;99.90;;;;;;503061;236;27538;-69
2022/01/12 08:57:59;;;;;;;7.85;5.10;;;-1.20;99.90;;;;;;503019;236;27520;-69
2022/01/12 09:00:00;;;;;;;6.65;5.37;;;-1.20;99.90;;;;;;503045;236;27435;-69
2022/01/12 09:02:02;;;;;;;8.18;6.37;;;-1.10;99.90;;;;;;503040;236;27924;-69
2022/01/12 09:04:03;;;;;;;7.90;5.72;;;-1.00;99.90;;;;;;503027;236;29100;-69
2022/01/12 09:06:05;;;;;;;8.23;5.35;;;-1.00;99.90;;;;;;503051;236;27474;-69
2022/01/12 09:08:05;;;;;;;8.85;6.05;;;-0.90;99.90;;;;;;503051;236;27496;-69
2022/01/12 09:10:07;;;;;;;8.05;5.35;;;-0.90;99.90;;;;;;503024;236;27533;-69
2022/01/12 09:12:08;;;;;;;7.75;6.12;;;-0.80;99.90;;;;;;503058;236;27436;-69
2022/01/12 09:14:09;;;;;;;9.38;6.57;;;-0.80;99.90;;;;;;503041;236;27486;-69
2022/01/12 09:16:10;;;;;;;6.35;5.60;;;-0.80;99.90;;;;;;503056;236;27453;-69
2022/01/12 09:18:12;;;;;;;8.02;5.65;;;-0.70;99.90;;;;;;503042;236;27493;-69
2022/01/12 09:20:13;;;;;;;6.82;5.55;;;-0.70;99.90;;;;;;503066;236;27433;-69
2022/01/12 09:22:14;;;;;;;7.12;5.65;;;-0.70;99.90;;;;;;503071;236;28074;-69
2022/01/12 09:24:15;;;;;;;6.85;5.28;;;-0.70;99.90;;;;;;503064;236;28051;-69
2022/01/12 09:26:17;;;;;;;8.50;5.70;;;-0.60;99.90;;;;;;503064;236;27459;-70
2022/01/12 09:28:18;;;;;;;8.02;5.40;;;-0.60;99.90;;;;;;503039;236;27480;-69
2022/01/12 09:30:19;;;;;;;7.70;6.00;;;-0.60;99.90;;;;;;503052;236;27640;-69
2022/01/12 09:32:20;;;;;;;7.30;6.25;;;-0.60;99.90;;;;;;503049;236;27517;-69
2022/01/12 09:34:22;;;;;;;9.25;6.22;;;-0.50;99.90;;;;;;503049;236;27494;-69
2022/01/12 09:36:23;;;;;;;8.57;6.05;;;-0.50;99.90;;;;;;503052;236;27529;-69
2022/01/12 09:38:24;;;;;;;8.40;6.45;;;-0.40;99.90;;;;;;503034;236;27513;-69
2022/01/12 09:40:26;;;;;;;10.10;6.32;;;-0.40;99.90;;;;;;503077;236;27489;-69
2022/01/12 09:42:27;;;;;;;8.82;5.97;;;-0.30;99.90;;;;;;503063;236;27919;-69
2022/01/12 09:44:28;;;;;;;8.88;7.05;;;-0.20;99.90;;;;;;503075;236;28045;-69
2022/01/12 09:46:29;;;;;;;8.63;6.10;;;-0.20;99.90;;;;;;503059;236;27462;-69
2022/01/12 09:48:34;;;;;;;7.90;5.60;;;-0.10;99.90;;;;;;503055;236;27474;-69
2022/01/12 09:50:32;;;;;;;7.75;6.57;;;-0.10;99.90;;;;;;502852;236;27497;-69
2022/01/12 09:52:33;;;;;;;7.00;5.50;;;0.00;99.90;;;;;;503050;236;27514;-69
2022/01/12 09:54:35;;;;;;;10.50;6.57;;;0.00;99.90;;;;;;503031;236;27492;-69
2022/01/12 09:56:36;;;;;;;9.18;6.00;;;0.10;99.90;;;;;;503000;236;27470;-69
2022/01/12 09:58:37;;;;;;;7.10;6.40;;;0.20;99.90;;;;;;503002;236;27462;-69
2022/01/12 10:00:38;;;;;;;7.12;5.53;;;0.20;99.90;;;;;;503063;236;27594;-69
2022/01/12 10:02:39;;;;;;;8.68;5.93;;;0.30;99.90;;;;;;503045;236;27998;-69
2022/01/12 10:04:41;;;;;;;6.03;5.10;;;0.40;99.90;;;;;;503033;236;27969;-69
2022/01/12 10:06:42;;;;;;;6.35;5.68;;;0.50;99.90;;;;;;503045;236;28659;-69
2022/01/12 10:08:43;;;;;;;11.77;7.85;;;0.60;99.90;;;;;;503064;236;27898;-70
2022/01/12 10:10:44;;;;;;;7.65;5.72;;;0.80;99.90;;;;;;502876;236;27485;-69
2022/01/12 10:12:46;;;;;;;6.20;5.60;;;0.70;99.90;;;;;;502834;236;27489;-70
2022/01/12 10:14:48;;;;;;;8.82;6.70;;;0.70;99.90;;;;;;502817;236;27466;-69
2022/01/12 10:16:49;;;;;;;9.00;7.22;;;0.80;99.90;;;;;;502796;236;27568;-69
2022/01/12 10:18:50;;;;;;;9.15;7.10;;;0.90;99.90;;;;;;502971;236;27596;-69
2022/01/12 10:20:52;;;;;;;9.48;7.15;;;0.90;99.90;;;;;;503051;236;27442;-69
2022/01/12 10:22:53;;;;;;;11.25;7.57;;;1.10;99.90;;;;;;503053;236;27477;-69
2022/01/12 10:24:54;;;;;;;7.93;7.12;;;1.00;99.90;;;;;;503066;236;28824;-69
2022/01/12 10:26:55;;;;;;;8.52;7.45;;;1.00;99.90;;;;;;503079;236;27906;-69
2022/01/12 10:28:57;;;;;;;9.02;7.28;;;1.10;99.90;;;;;;503096;236;28074;-69
2022/01/12 10:30:58;;;;;;;8.85;6.62;;;1.10;99.90;;;;;;503048;236;27455;-70
2022/01/12 10:32:59;;;;;;;8.77;6.65;;;1.10;99.90;;;;;;503051;236;27469;-69
2022/01/12 10:35:00;;;;;;;7.72;6.78;;;1.10;99.90;;;;;;503093;236;27599;-69
2022/01/12 10:37:02;;;;;;;8.77;7.12;;;1.20;99.90;;;;;;503079;236;27554;-69
2022/01/12 10:39:03;;;;;;;7.93;6.50;;;1.30;99.90;;;;;;503067;236;27489;-70
2022/01/12 10:41:04;;;;;;;8.27;6.65;;;1.30;99.90;;;;;;503032;236;27557;-69
2022/01/12 10:43:05;;;;;;;7.87;6.40;;;1.40;99.90;;;;;;503045;236;27552;-69
2022/01/12 10:45:07;;;;;;;10.38;7.15;;;1.30;99.90;;;;;;503099;236;27564;-69
2022/01/12 10:47:08;;;;;;;9.75;7.43;;;1.30;99.90;;;;;;503096;236;27435;-70
2022/01/12 10:49:09;;;;;;;8.48;6.82;;;1.40;99.90;;;;;;503065;236;27508;-70
2022/01/12 10:51:11;;;;;;;7.85;6.57;;;1.50;99.90;;;;;;503056;236;27914;-70
2022/01/12 10:53:12;;;;;;;8.60;7.12;;;1.60;99.90;;;;;;503063;236;27950;-70
2022/01/12 10:55:15;;;;;;;8.55;6.07;;;1.60;99.90;;;;;;503064;236;27976;-69
2022/01/12 10:57:14;;;;;;;8.80;6.78;;;1.60;99.90;;;;;;502935;236;27940;-69
2022/01/12 10:59:16;;;;;;;8.10;5.85;;;1.50;99.90;;;;;;503046;236;27502;-69
2022/01/12 11:01:17;;;;;;;9.20;6.20;;;1.50;99.90;;;;;;503047;236;27529;-69
2022/01/12 11:03:18;;;;;;;7.15;6.20;;;1.50;99.90;;;;;;503075;236;27438;-69
2022/01/12 11:05:19;;;;;;;6.68;5.75;;;1.60;99.90;;;;;;503082;236;27471;-69
2022/01/12 11:07:20;;;;;;;9.52;6.68;;;1.60;99.90;;;;;;503084;236;27442;-69
2022/01/12 11:09:23;;;;;;;7.53;6.15;;;1.70;99.90;;;;;;503067;236;27493;-69
2022/01/12 11:11:25;;;;;;;7.25;6.30;;;1.70;99.90;;;;;;502986;236;27561;-69
2022/01/12 11:13:24;;;;;;;7.20;5.80;;;1.70;99.90;;;;;;502959;236;27502;-69
2022/01/12 11:15:25;;;;;;;6.62;5.53;;;1.80;99.90;;;;;;503079;236;27568;-69
2022/01/12 11:17:27;;;;;;;7.12;5.47;;;1.80;99.90;;;;;;503059;236;27529;-70
2022/01/12 11:19:28;;;;;;;7.62;5.80;;;1.80;99.90;;;;;;503055;236;27484;-69
2022/01/12 11:21:29;;;;;;;7.45;6.20;;;1.90;99.90;;;;;;503048;236;28442;-69
2022/01/12 11:23:30;;;;;;;7.22;5.50;;;2.00;99.90;;;;;;503080;236;27907;-69
2022/01/12 11:25:32;;;;;;;6.75;5.05;;;1.90;99.90;;;;;;503082;236;28045;-69
2022/01/12 11:27:33;;;;;;;6.53;4.78;;;1.90;99.90;;;;;;503046;236;27459;-70
2022/01/12 11:29:34;;;;;;;5.40;4.53;;;1.90;99.90;;;;;;503048;236;27482;-69
2022/01/12 11:31:38;;;;;;;5.20;4.70;;;1.80;99.90;;;;;;503069;236;27497;-69
2022/01/12 11:33:38;;;;;;;5.12;4.62;;;1.80;99.90;;;;;;502909;236;27455;-69
2022/01/12 11:35:38;;;;;;;5.20;4.70;;;1.90;99.90;;;;;;503011;236;27509;-69
2022/01/12 11:37:39;;;;;;;6.43;5.00;;;1.90;99.90;;;;;;503036;236;27531;-70
2022/01/12 11:39:40;;;;;;;5.30;4.62;;;2.00;99.90;;;;;;503045;236;27486;-69
2022/01/12 11:41:43;;;;;;;8.63;6.43;;;2.10;99.90;;;;;;503069;236;27572;-70
2022/01/12 11:43:43;;;;;;;6.75;5.30;;;2.20;99.90;;;;;;503018;236;27500;-69
2022/01/12 11:45:44;;;;;;;8.13;6.22;;;2.30;99.90;;;;;;503075;236;27506;-69